Check out our new PWSWeather beta!
PWSweather.com
Personal Weather Stations
Station Observations
URBANDALE
Westwind Acres And Meredith Hills, Urbandale, IA 50322

Westwind Acres And Meredith HillsUrbandale, IA 50322

Lat: 41.643, Lon: -93.709

Elevation: 928

Station Type:

http://urbandaleweather.com

High Low Average
Temperature 48.4°F9.1°C 24.1°F-4.4°C 36.7°F2.6°C
Dew Point 35.4°F1.9°C 20.7°F-6.3°C 28.0°F-2.2°C
Winds 4.9 mph 7.9 kmh Calm Calm 2.0 mph SSW3.2 kmh SSW
Wind Gusts 14.1 mph22.7 kmh -- 5.0 mph8.0 kmh
Humidity 88% 55% 72%
Pressure 29.83 in1010.2 mb 29.37 in994.6 mb -
Precipitation 0.00 in0.0 mm - -
Hour Temp Dew Point Humidity Winds Wind Gusts Pressure Precip Precip Rate Daily Precip Total
12:04 AM 24.4°F-4.2°C 20.8°F-6.2°C 86% Calm Calm 0.9 mph1.4 kmh 29.83 in1010.2 mb 0.00 in0.0 mm 0.00 in0.0 mm 0.00 in0.0 mm
12:09 AM 24.4°F-4.2°C 20.8°F-6.2°C 86% Calm Calm -- 29.82 in1009.8 mb 0.00 in0.0 mm 0.00 in0.0 mm 0.00 in0.0 mm
12:14 AM 24.4°F-4.2°C 20.7°F-6.3°C 85% Calm Calm 1.0 mph1.6 kmh 29.82 in1009.8 mb 0.00 in0.0 mm 0.00 in0.0 mm 0.00 in0.0 mm
12:19 AM 24.4°F-4.2°C 20.8°F-6.2°C 86% Calm Calm 0.9 mph1.4 kmh 29.82 in1009.8 mb 0.00 in0.0 mm 0.00 in0.0 mm 0.00 in0.0 mm
12:24 AM 24.4°F-4.2°C 20.7°F-6.3°C 85% Calm Calm 0.9 mph1.4 kmh 29.81 in1009.5 mb 0.00 in0.0 mm 0.00 in0.0 mm 0.00 in0.0 mm
12:29 AM 24.4°F-4.2°C 20.8°F-6.2°C 86% Calm Calm 0.9 mph1.4 kmh 29.81 in1009.5 mb 0.00 in0.0 mm 0.00 in0.0 mm 0.00 in0.0 mm
12:34 AM 24.4°F-4.2°C 20.7°F-6.3°C 85% Calm Calm 2.0 mph3.2 kmh 29.82 in1009.8 mb 0.00 in0.0 mm 0.00 in0.0 mm 0.00 in0.0 mm
12:39 AM 24.4°F-4.2°C 20.7°F-6.3°C 85% Calm Calm 2.0 mph3.2 kmh 29.81 in1009.5 mb 0.00 in0.0 mm 0.00 in0.0 mm 0.00 in0.0 mm
12:44 AM 24.4°F-4.2°C 20.7°F-6.3°C 85% Calm Calm 0.9 mph1.4 kmh 29.81 in1009.5 mb 0.00 in0.0 mm 0.00 in0.0 mm 0.00 in0.0 mm
12:49 AM 24.4°F-4.2°C 20.7°F-6.3°C 85% 0.9 mph SW1.4 kmh SW 2.0 mph3.2 kmh 29.81 in1009.5 mb 0.00 in0.0 mm 0.00 in0.0 mm 0.00 in0.0 mm
12:54 AM 24.4°F-4.2°C 20.7°F-6.3°C 85% 0.9 mph SW1.4 kmh SW 2.0 mph3.2 kmh 29.81 in1009.5 mb 0.00 in0.0 mm 0.00 in0.0 mm 0.00 in0.0 mm
12:59 AM 24.4°F-4.2°C 20.7°F-6.3°C 85% 0.9 mph SW1.4 kmh SW 0.9 mph1.4 kmh 29.81 in1009.5 mb 0.00 in0.0 mm 0.00 in0.0 mm 0.00 in0.0 mm
01:04 AM 24.4°F-4.2°C 20.7°F-6.3°C 85% 0.9 mph SW1.4 kmh SW 2.0 mph3.2 kmh 29.81 in1009.5 mb 0.00 in0.0 mm 0.00 in0.0 mm 0.00 in0.0 mm
01:09 AM 24.4°F-4.2°C 20.7°F-6.3°C 85% Calm Calm 2.0 mph3.2 kmh 29.80 in1009.1 mb 0.00 in0.0 mm 0.00 in0.0 mm 0.00 in0.0 mm
01:14 AM 24.4°F-4.2°C 20.7°F-6.3°C 85% Calm Calm 2.0 mph3.2 kmh 29.80 in1009.1 mb 0.00 in0.0 mm 0.00 in0.0 mm 0.00 in0.0 mm
01:19 AM 24.4°F-4.2°C 20.7°F-6.3°C 85% Calm Calm 0.9 mph1.4 kmh 29.80 in1009.1 mb 0.00 in0.0 mm 0.00 in0.0 mm 0.00 in0.0 mm
01:24 AM 24.4°F-4.2°C 20.7°F-6.3°C 85% Calm Calm 0.9 mph1.4 kmh 29.80 in1009.1 mb 0.00 in0.0 mm 0.00 in0.0 mm 0.00 in0.0 mm
01:29 AM 24.4°F-4.2°C 20.8°F-6.2°C 86% Calm Calm 0.9 mph1.4 kmh 29.79 in1008.8 mb 0.00 in0.0 mm 0.00 in0.0 mm 0.00 in0.0 mm
01:34 AM 24.4°F-4.2°C 20.8°F-6.2°C 86% Calm Calm 0.9 mph1.4 kmh 29.79 in1008.8 mb 0.00 in0.0 mm 0.00 in0.0 mm 0.00 in0.0 mm
01:39 AM 24.4°F-4.2°C 20.8°F-6.2°C 86% Calm Calm 0.9 mph1.4 kmh 29.79 in1008.8 mb 0.00 in0.0 mm 0.00 in0.0 mm 0.00 in0.0 mm
01:44 AM 24.6°F-4.1°C 21.0°F-6.1°C 86% Calm Calm 0.9 mph1.4 kmh 29.78 in1008.5 mb 0.00 in0.0 mm 0.00 in0.0 mm 0.00 in0.0 mm
01:49 AM 24.6°F-4.1°C 21.0°F-6.1°C 86% Calm Calm 0.9 mph1.4 kmh 29.78 in1008.5 mb 0.00 in0.0 mm 0.00 in0.0 mm 0.00 in0.0 mm
01:54 AM 24.8°F-4.0°C 21.2°F-6.0°C 86% Calm Calm 0.9 mph1.4 kmh 29.78 in1008.5 mb 0.00 in0.0 mm 0.00 in0.0 mm 0.00 in0.0 mm
01:59 AM 25.0°F-3.9°C 21.4°F-5.9°C 86% Calm Calm 0.9 mph1.4 kmh 29.78 in1008.5 mb 0.00 in0.0 mm 0.00 in0.0 mm 0.00 in0.0 mm
02:04 AM 25.0°F-3.9°C 21.4°F-5.9°C 86% Calm Calm -- 29.77 in1008.1 mb 0.00 in0.0 mm 0.00 in0.0 mm 0.00 in0.0 mm
02:09 AM 24.8°F-4.0°C 21.2°F-6.0°C 86% Calm Calm -- 29.77 in1008.1 mb 0.00 in0.0 mm 0.00 in0.0 mm 0.00 in0.0 mm
02:14 AM 24.8°F-4.0°C 21.2°F-6.0°C 86% Calm Calm 1.0 mph1.6 kmh 29.77 in1008.1 mb 0.00 in0.0 mm 0.00 in0.0 mm 0.00 in0.0 mm
02:19 AM 24.8°F-4.0°C 21.2°F-6.0°C 86% Calm Calm 0.9 mph1.4 kmh 29.77 in1008.1 mb 0.00 in0.0 mm 0.00 in0.0 mm 0.00 in0.0 mm
02:24 AM 24.8°F-4.0°C 21.2°F-6.0°C 86% Calm Calm 0.9 mph1.4 kmh 29.76 in1007.8 mb 0.00 in0.0 mm 0.00 in0.0 mm 0.00 in0.0 mm
02:29 AM 24.6°F-4.1°C 21.0°F-6.1°C 86% 0.9 mph SSW1.4 kmh SSW 0.9 mph1.4 kmh 29.76 in1007.8 mb 0.00 in0.0 mm 0.00 in0.0 mm 0.00 in0.0 mm
02:34 AM 24.6°F-4.1°C 21.0°F-6.1°C 86% 0.9 mph SSW1.4 kmh SSW 0.9 mph1.4 kmh 29.77 in1008.1 mb 0.00 in0.0 mm 0.00 in0.0 mm 0.00 in0.0 mm
02:39 AM 24.6°F-4.1°C 21.0°F-6.1°C 86% 0.9 mph S1.4 kmh S 2.0 mph3.2 kmh 29.76 in1007.8 mb 0.00 in0.0 mm 0.00 in0.0 mm 0.00 in0.0 mm
02:44 AM 24.6°F-4.1°C 21.0°F-6.1°C 86% 0.9 mph S1.4 kmh S 2.0 mph3.2 kmh 29.76 in1007.8 mb 0.00 in0.0 mm 0.00 in0.0 mm 0.00 in0.0 mm
02:49 AM 24.8°F-4.0°C 21.2°F-6.0°C 86% 0.9 mph SW1.4 kmh SW 2.0 mph3.2 kmh 29.76 in1007.8 mb 0.00 in0.0 mm 0.00 in0.0 mm 0.00 in0.0 mm
02:54 AM 24.8°F-4.0°C 21.2°F-6.0°C 86% 0.9 mph SW1.4 kmh SW 2.0 mph3.2 kmh 29.76 in1007.8 mb 0.00 in0.0 mm 0.00 in0.0 mm 0.00 in0.0 mm
02:59 AM 24.8°F-4.0°C 21.2°F-6.0°C 86% 0.9 mph SSW1.4 kmh SSW 2.0 mph3.2 kmh 29.76 in1007.8 mb 0.00 in0.0 mm 0.00 in0.0 mm 0.00 in0.0 mm
03:04 AM 24.6°F-4.1°C 21.0°F-6.1°C 86% 0.9 mph SSW1.4 kmh SSW 2.0 mph3.2 kmh 29.75 in1007.5 mb 0.00 in0.0 mm 0.00 in0.0 mm 0.00 in0.0 mm
03:09 AM 24.4°F-4.2°C 20.8°F-6.2°C 86% 0.9 mph S1.4 kmh S 0.9 mph1.4 kmh 29.74 in1007.1 mb 0.00 in0.0 mm 0.00 in0.0 mm 0.00 in0.0 mm
03:14 AM 24.4°F-4.2°C 20.8°F-6.2°C 86% Calm Calm 2.0 mph3.2 kmh 29.75 in1007.5 mb 0.00 in0.0 mm 0.00 in0.0 mm 0.00 in0.0 mm
03:19 AM 24.3°F-4.3°C 21.0°F-6.1°C 87% Calm Calm 0.9 mph1.4 kmh 29.74 in1007.1 mb 0.00 in0.0 mm 0.00 in0.0 mm 0.00 in0.0 mm
03:24 AM 24.1°F-4.4°C 20.8°F-6.2°C 87% Calm Calm 2.0 mph3.2 kmh 29.74 in1007.1 mb 0.00 in0.0 mm 0.00 in0.0 mm 0.00 in0.0 mm
03:29 AM 24.1°F-4.4°C 21.0°F-6.1°C 88% 0.9 mph SSW1.4 kmh SSW 2.0 mph3.2 kmh 29.73 in1006.8 mb 0.00 in0.0 mm 0.00 in0.0 mm 0.00 in0.0 mm
03:34 AM 24.3°F-4.3°C 21.2°F-6.0°C 88% 0.9 mph SSE1.4 kmh SSE 2.0 mph3.2 kmh 29.73 in1006.8 mb 0.00 in0.0 mm 0.00 in0.0 mm 0.00 in0.0 mm
03:39 AM 24.3°F-4.3°C 21.2°F-6.0°C 88% 0.9 mph S1.4 kmh S 4.0 mph6.4 kmh 29.73 in1006.8 mb 0.00 in0.0 mm 0.00 in0.0 mm 0.00 in0.0 mm
03:44 AM 24.3°F-4.3°C 21.2°F-6.0°C 88% 0.9 mph SW1.4 kmh SW 5.0 mph8.0 kmh 29.72 in1006.4 mb 0.00 in0.0 mm 0.00 in0.0 mm 0.00 in0.0 mm
03:49 AM 24.4°F-4.2°C 21.4°F-5.9°C 88% 2.0 mph SSE3.2 kmh SSE 4.9 mph7.9 kmh 29.71 in1006.1 mb 0.00 in0.0 mm 0.00 in0.0 mm 0.00 in0.0 mm
03:54 AM 24.6°F-4.1°C 21.4°F-5.9°C 87% 2.0 mph SSW3.2 kmh SSW 4.0 mph6.4 kmh 29.71 in1006.1 mb 0.00 in0.0 mm 0.00 in0.0 mm 0.00 in0.0 mm
03:59 AM 24.6°F-4.1°C 21.4°F-5.9°C 87% 0.9 mph SSW1.4 kmh SSW 4.0 mph6.4 kmh 29.71 in1006.1 mb 0.00 in0.0 mm 0.00 in0.0 mm 0.00 in0.0 mm
04:05 AM 24.6°F-4.1°C 21.4°F-5.9°C 87% 0.9 mph S1.4 kmh S 6.0 mph9.7 kmh 29.71 in1006.1 mb 0.00 in0.0 mm 0.00 in0.0 mm 0.00 in0.0 mm
04:10 AM 24.6°F-4.1°C 21.4°F-5.9°C 87% 0.9 mph SSW1.4 kmh SSW 6.0 mph9.7 kmh 29.71 in1006.1 mb 0.00 in0.0 mm 0.00 in0.0 mm 0.00 in0.0 mm
04:15 AM 24.6°F-4.1°C 21.4°F-5.9°C 87% 0.9 mph SW1.4 kmh SW 4.0 mph6.4 kmh 29.71 in1006.1 mb 0.00 in0.0 mm 0.00 in0.0 mm 0.00 in0.0 mm
04:20 AM 24.4°F-4.2°C 21.2°F-6.0°C 87% 0.9 mph SSW1.4 kmh SSW 2.0 mph3.2 kmh 29.71 in1006.1 mb 0.00 in0.0 mm 0.00 in0.0 mm 0.00 in0.0 mm
04:25 AM 24.3°F-4.3°C 21.2°F-6.0°C 88% 0.9 mph SSW1.4 kmh SSW 2.9 mph4.7 kmh 29.71 in1006.1 mb 0.00 in0.0 mm 0.00 in0.0 mm 0.00 in0.0 mm
04:30 AM 24.3°F-4.3°C 21.2°F-6.0°C 88% 2.0 mph SSW3.2 kmh SSW 4.0 mph6.4 kmh 29.71 in1006.1 mb 0.00 in0.0 mm 0.00 in0.0 mm 0.00 in0.0 mm
04:35 AM 24.3°F-4.3°C 21.2°F-6.0°C 88% 2.0 mph SSW3.2 kmh SSW 2.9 mph4.7 kmh 29.70 in1005.8 mb 0.00 in0.0 mm 0.00 in0.0 mm 0.00 in0.0 mm
04:40 AM 24.3°F-4.3°C 21.2°F-6.0°C 88% 2.0 mph SW3.2 kmh SW 4.0 mph6.4 kmh 29.69 in1005.4 mb 0.00 in0.0 mm 0.00 in0.0 mm 0.00 in0.0 mm
04:45 AM 24.3°F-4.3°C 21.2°F-6.0°C 88% 2.0 mph SW3.2 kmh SW 2.9 mph4.7 kmh 29.69 in1005.4 mb 0.00 in0.0 mm 0.00 in0.0 mm 0.00 in0.0 mm
04:50 AM 24.4°F-4.2°C 21.4°F-5.9°C 88% 2.0 mph S3.2 kmh S 4.0 mph6.4 kmh 29.69 in1005.4 mb 0.00 in0.0 mm 0.00 in0.0 mm 0.00 in0.0 mm
04:55 AM 24.6°F-4.1°C 21.6°F-5.8°C 88% 2.0 mph SSW3.2 kmh SSW 7.0 mph11.3 kmh 29.69 in1005.4 mb 0.00 in0.0 mm 0.00 in0.0 mm 0.00 in0.0 mm
05:00 AM 24.8°F-4.0°C 21.6°F-5.8°C 87% 2.0 mph SSW3.2 kmh SSW 6.9 mph11.1 kmh 29.69 in1005.4 mb 0.00 in0.0 mm 0.00 in0.0 mm 0.00 in0.0 mm
05:05 AM 25.0°F-3.9°C 21.7°F-5.7°C 87% 2.0 mph S3.2 kmh S 6.0 mph9.7 kmh 29.68 in1005.1 mb 0.00 in0.0 mm 0.00 in0.0 mm 0.00 in0.0 mm
05:10 AM 25.0°F-3.9°C 21.7°F-5.7°C 87% 2.0 mph SSW3.2 kmh SSW 7.0 mph11.3 kmh 29.68 in1005.1 mb 0.00 in0.0 mm 0.00 in0.0 mm 0.00 in0.0 mm
05:15 AM 25.0°F-3.9°C 21.7°F-5.7°C 87% 2.0 mph SW3.2 kmh SW 4.9 mph7.9 kmh 29.68 in1005.1 mb 0.00 in0.0 mm 0.00 in0.0 mm 0.00 in0.0 mm
05:20 AM 25.2°F-3.8°C 21.6°F-5.8°C 86% 2.0 mph SSW3.2 kmh SSW 4.9 mph7.9 kmh 29.68 in1005.1 mb 0.00 in0.0 mm 0.00 in0.0 mm 0.00 in0.0 mm
05:25 AM 25.2°F-3.8°C 21.6°F-5.8°C 86% 2.0 mph SSW3.2 kmh SSW 4.9 mph7.9 kmh 29.67 in1004.7 mb 0.00 in0.0 mm 0.00 in0.0 mm 0.00 in0.0 mm
05:30 AM 25.2°F-3.8°C 21.6°F-5.8°C 86% 2.0 mph SSW3.2 kmh SSW 2.9 mph4.7 kmh 29.67 in1004.7 mb 0.00 in0.0 mm 0.00 in0.0 mm 0.00 in0.0 mm
05:35 AM 25.3°F-3.7°C 21.7°F-5.7°C 86% 2.0 mph S3.2 kmh S 4.9 mph7.9 kmh 29.67 in1004.7 mb 0.00 in0.0 mm 0.00 in0.0 mm 0.00 in0.0 mm
05:40 AM 25.3°F-3.7°C 21.7°F-5.7°C 86% 2.0 mph SSE3.2 kmh SSE 4.9 mph7.9 kmh 29.67 in1004.7 mb 0.00 in0.0 mm 0.00 in0.0 mm 0.00 in0.0 mm
05:45 AM 25.5°F-3.6°C 21.9°F-5.6°C 86% 2.0 mph SW3.2 kmh SW 4.0 mph6.4 kmh 29.67 in1004.7 mb 0.00 in0.0 mm 0.00 in0.0 mm 0.00 in0.0 mm
05:50 AM 25.5°F-3.6°C 21.9°F-5.6°C 86% 2.0 mph SSW3.2 kmh SSW 6.0 mph9.7 kmh 29.67 in1004.7 mb 0.00 in0.0 mm 0.00 in0.0 mm 0.00 in0.0 mm
05:55 AM 25.5°F-3.6°C 21.9°F-5.6°C 86% 2.0 mph SW3.2 kmh SW 4.9 mph7.9 kmh 29.67 in1004.7 mb 0.00 in0.0 mm 0.00 in0.0 mm 0.00 in0.0 mm
06:00 AM 25.5°F-3.6°C 21.6°F-5.8°C 85% 2.0 mph SSW3.2 kmh SSW 4.0 mph6.4 kmh 29.67 in1004.7 mb 0.00 in0.0 mm 0.00 in0.0 mm 0.00 in0.0 mm
06:05 AM 25.3°F-3.7°C 21.4°F-5.9°C 85% 2.0 mph SW3.2 kmh SW 4.0 mph6.4 kmh 29.66 in1004.4 mb 0.00 in0.0 mm 0.00 in0.0 mm 0.00 in0.0 mm
06:10 AM 25.3°F-3.7°C 21.7°F-5.7°C 86% 2.0 mph SW3.2 kmh SW 4.0 mph6.4 kmh 29.66 in1004.4 mb 0.00 in0.0 mm 0.00 in0.0 mm 0.00 in0.0 mm
06:15 AM 25.3°F-3.7°C 21.7°F-5.7°C 86% 2.0 mph SSW3.2 kmh SSW 4.0 mph6.4 kmh 29.66 in1004.4 mb 0.00 in0.0 mm 0.00 in0.0 mm 0.00 in0.0 mm
06:20 AM 25.2°F-3.8°C 21.6°F-5.8°C 86% 2.0 mph SSW3.2 kmh SSW 6.0 mph9.7 kmh 29.66 in1004.4 mb 0.00 in0.0 mm 0.00 in0.0 mm 0.00 in0.0 mm
06:25 AM 25.2°F-3.8°C 21.6°F-5.8°C 86% 2.0 mph SSW3.2 kmh SSW 6.0 mph9.7 kmh 29.66 in1004.4 mb 0.00 in0.0 mm 0.00 in0.0 mm 0.00 in0.0 mm
06:30 AM 25.2°F-3.8°C 21.6°F-5.8°C 86% 2.0 mph S3.2 kmh S 4.0 mph6.4 kmh 29.65 in1004.1 mb 0.00 in0.0 mm 0.00 in0.0 mm 0.00 in0.0 mm
06:35 AM 25.3°F-3.7°C 21.7°F-5.7°C 86% 2.0 mph S3.2 kmh S 7.0 mph11.3 kmh 29.65 in1004.1 mb 0.00 in0.0 mm 0.00 in0.0 mm 0.00 in0.0 mm
06:40 AM 25.3°F-3.7°C 21.7°F-5.7°C 86% 2.9 mph SW4.7 kmh SW 4.0 mph6.4 kmh 29.64 in1003.7 mb 0.00 in0.0 mm 0.00 in0.0 mm 0.00 in0.0 mm
06:45 AM 25.5°F-3.6°C 21.9°F-5.6°C 86% 2.9 mph SSE4.7 kmh SSE 6.0 mph9.7 kmh 29.64 in1003.7 mb 0.00 in0.0 mm 0.00 in0.0 mm 0.00 in0.0 mm
06:50 AM 25.5°F-3.6°C 21.6°F-5.8°C 85% 2.9 mph SSW4.7 kmh SSW 6.9 mph11.1 kmh 29.64 in1003.7 mb 0.00 in0.0 mm 0.00 in0.0 mm 0.00 in0.0 mm
06:55 AM 25.5°F-3.6°C 21.6°F-5.8°C 85% 2.9 mph S4.7 kmh S 6.9 mph11.1 kmh 29.64 in1003.7 mb 0.00 in0.0 mm 0.00 in0.0 mm 0.00 in0.0 mm
07:00 AM 25.5°F-3.6°C 21.9°F-5.6°C 86% 2.9 mph S4.7 kmh S 6.9 mph11.1 kmh 29.63 in1003.4 mb 0.00 in0.0 mm 0.00 in0.0 mm 0.00 in0.0 mm
07:05 AM 25.5°F-3.6°C 21.6°F-5.8°C 85% 2.9 mph S4.7 kmh S 6.0 mph9.7 kmh 29.63 in1003.4 mb 0.00 in0.0 mm 0.00 in0.0 mm 0.00 in0.0 mm
07:10 AM 25.5°F-3.6°C 21.6°F-5.8°C 85% 2.9 mph SSW4.7 kmh SSW 7.0 mph11.3 kmh 29.63 in1003.4 mb 0.00 in0.0 mm 0.00 in0.0 mm 0.00 in0.0 mm
07:15 AM 25.7°F-3.5°C 21.7°F-5.7°C 85% 2.9 mph S4.7 kmh S 6.0 mph9.7 kmh 29.63 in1003.4 mb 0.00 in0.0 mm 0.00 in0.0 mm 0.00 in0.0 mm
07:20 AM 25.7°F-3.5°C 21.7°F-5.7°C 85% 2.9 mph SSW4.7 kmh SSW 4.9 mph7.9 kmh 29.63 in1003.4 mb 0.00 in0.0 mm 0.00 in0.0 mm 0.00 in0.0 mm
07:25 AM 25.7°F-3.5°C 21.7°F-5.7°C 85% 2.0 mph S3.2 kmh S 6.9 mph11.1 kmh 29.63 in1003.4 mb 0.00 in0.0 mm 0.00 in0.0 mm 0.00 in0.0 mm
07:30 AM 25.9°F-3.4°C 21.9°F-5.6°C 85% 2.0 mph SW3.2 kmh SW 6.0 mph9.7 kmh 29.62 in1003.0 mb 0.00 in0.0 mm 0.00 in0.0 mm 0.00 in0.0 mm
07:35 AM 25.9°F-3.4°C 21.9°F-5.6°C 85% 2.0 mph S3.2 kmh S 4.9 mph7.9 kmh 29.62 in1003.0 mb 0.00 in0.0 mm 0.00 in0.0 mm 0.00 in0.0 mm
07:40 AM 25.9°F-3.4°C 21.9°F-5.6°C 85% 2.0 mph S3.2 kmh S 4.9 mph7.9 kmh 29.62 in1003.0 mb 0.00 in0.0 mm 0.00 in0.0 mm 0.00 in0.0 mm
07:45 AM 26.1°F-3.3°C 21.9°F-5.6°C 84% 2.0 mph SW3.2 kmh SW 4.9 mph7.9 kmh 29.62 in1003.0 mb 0.00 in0.0 mm 0.00 in0.0 mm 0.00 in0.0 mm
07:50 AM 26.1°F-3.3°C 21.9°F-5.6°C 84% 0.9 mph SSW1.4 kmh SSW 4.0 mph6.4 kmh 29.62 in1003.0 mb 0.00 in0.0 mm 0.00 in0.0 mm 0.00 in0.0 mm
07:55 AM 26.2°F-3.2°C 22.1°F-5.5°C 84% 2.0 mph SSW3.2 kmh SSW 4.9 mph7.9 kmh 29.62 in1003.0 mb 0.00 in0.0 mm 0.00 in0.0 mm 0.00 in0.0 mm
08:00 AM 26.2°F-3.2°C 22.1°F-5.5°C 84% 2.0 mph S3.2 kmh S 4.0 mph6.4 kmh 29.62 in1003.0 mb 0.00 in0.0 mm 0.00 in0.0 mm 0.00 in0.0 mm
08:05 AM 26.4°F-3.1°C 22.3°F-5.4°C 84% 2.0 mph SSW3.2 kmh SSW 8.1 mph13.0 kmh 29.62 in1003.0 mb 0.00 in0.0 mm 0.00 in0.0 mm 0.00 in0.0 mm
08:10 AM 26.8°F-2.9°C 22.3°F-5.4°C 83% 2.9 mph S4.7 kmh S 6.9 mph11.1 kmh 29.61 in1002.7 mb 0.00 in0.0 mm 0.00 in0.0 mm 0.00 in0.0 mm
08:15 AM 27.0°F-2.8°C 22.5°F-5.3°C 83% 2.9 mph S4.7 kmh S 6.9 mph11.1 kmh 29.61 in1002.7 mb 0.00 in0.0 mm 0.00 in0.0 mm 0.00 in0.0 mm
08:20 AM 27.1°F-2.7°C 22.5°F-5.3°C 82% 2.9 mph SW4.7 kmh SW 6.9 mph11.1 kmh 29.61 in1002.7 mb 0.00 in0.0 mm 0.00 in0.0 mm 0.00 in0.0 mm
08:25 AM 27.5°F-2.5°C 22.8°F-5.1°C 82% 2.9 mph S4.7 kmh S 6.9 mph11.1 kmh 29.61 in1002.7 mb 0.00 in0.0 mm 0.00 in0.0 mm 0.00 in0.0 mm
08:30 AM 27.9°F-2.3°C 22.8°F-5.1°C 81% 2.9 mph SSW4.7 kmh SSW 4.9 mph7.9 kmh 29.61 in1002.7 mb 0.00 in0.0 mm 0.00 in0.0 mm 0.00 in0.0 mm
08:35 AM 28.2°F-2.1°C 23.2°F-4.9°C 81% 2.9 mph SSW4.7 kmh SSW 6.0 mph9.7 kmh 29.61 in1002.7 mb 0.00 in0.0 mm 0.00 in0.0 mm 0.00 in0.0 mm
08:40 AM 28.8°F-1.8°C 23.4°F-4.8°C 80% 2.0 mph SSW3.2 kmh SSW 6.9 mph11.1 kmh 29.60 in1002.4 mb 0.00 in0.0 mm 0.00 in0.0 mm 0.00 in0.0 mm
08:45 AM 29.1°F-1.6°C 23.4°F-4.8°C 79% 2.9 mph SW4.7 kmh SW 4.9 mph7.9 kmh 29.60 in1002.4 mb 0.00 in0.0 mm 0.00 in0.0 mm 0.00 in0.0 mm
08:50 AM 29.7°F-1.3°C 23.7°F-4.6°C 78% 2.9 mph SSW4.7 kmh SSW 4.9 mph7.9 kmh 29.60 in1002.4 mb 0.00 in0.0 mm 0.00 in0.0 mm 0.00 in0.0 mm
08:55 AM 30.0°F-1.1°C 24.1°F-4.4°C 78% 2.9 mph S4.7 kmh S 8.1 mph13.0 kmh 29.60 in1002.4 mb 0.00 in0.0 mm 0.00 in0.0 mm 0.00 in0.0 mm
09:00 AM 30.4°F-0.9°C 24.1°F-4.4°C 77% 2.9 mph S4.7 kmh S 6.0 mph9.7 kmh 29.60 in1002.4 mb 0.00 in0.0 mm 0.00 in0.0 mm 0.00 in0.0 mm
09:05 AM 30.7°F-0.7°C 24.4°F-4.2°C 77% 2.0 mph S3.2 kmh S 4.0 mph6.4 kmh 29.60 in1002.4 mb 0.00 in0.0 mm 0.00 in0.0 mm 0.00 in0.0 mm
09:10 AM 30.9°F-0.6°C 24.3°F-4.3°C 76% 2.0 mph SSW3.2 kmh SSW 8.9 mph14.3 kmh 29.60 in1002.4 mb 0.00 in0.0 mm 0.00 in0.0 mm 0.00 in0.0 mm
09:15 AM 31.3°F-0.4°C 24.6°F-4.1°C 76% 2.0 mph SW3.2 kmh SW 4.0 mph6.4 kmh 29.60 in1002.4 mb 0.00 in0.0 mm 0.00 in0.0 mm 0.00 in0.0 mm
09:20 AM 31.6°F-0.2°C 24.6°F-4.1°C 75% 2.0 mph SW3.2 kmh SW 4.0 mph6.4 kmh 29.60 in1002.4 mb 0.00 in0.0 mm 0.00 in0.0 mm 0.00 in0.0 mm
09:25 AM 32.2°F0.1°C 24.8°F-4.0°C 74% 2.0 mph SSW3.2 kmh SSW 6.0 mph9.7 kmh 29.60 in1002.4 mb 0.00 in0.0 mm 0.00 in0.0 mm 0.00 in0.0 mm
09:30 AM 32.7°F0.4°C 25.0°F-3.9°C 73% 2.0 mph SSW3.2 kmh SSW 6.0 mph9.7 kmh 29.60 in1002.4 mb 0.00 in0.0 mm 0.00 in0.0 mm 0.00 in0.0 mm
09:35 AM 33.3°F0.7°C 25.2°F-3.8°C 72% 2.0 mph SSW3.2 kmh SSW 4.9 mph7.9 kmh 29.60 in1002.4 mb 0.00 in0.0 mm 0.00 in0.0 mm 0.00 in0.0 mm
09:40 AM 33.6°F0.9°C 25.2°F-3.8°C 71% 2.0 mph S3.2 kmh S 4.9 mph7.9 kmh 29.60 in1002.4 mb 0.00 in0.0 mm 0.00 in0.0 mm 0.00 in0.0 mm
09:45 AM 34.2°F1.2°C 25.3°F-3.7°C 70% 2.0 mph S3.2 kmh S 7.0 mph11.3 kmh 29.60 in1002.4 mb 0.00 in0.0 mm 0.00 in0.0 mm 0.00 in0.0 mm
09:50 AM 34.5°F1.4°C 25.7°F-3.5°C 70% 2.0 mph S3.2 kmh S 4.0 mph6.4 kmh 29.60 in1002.4 mb 0.00 in0.0 mm 0.00 in0.0 mm 0.00 in0.0 mm
09:55 AM 35.1°F1.7°C 25.9°F-3.4°C 69% 2.0 mph SW3.2 kmh SW 6.0 mph9.7 kmh 29.59 in1002.0 mb 0.00 in0.0 mm 0.00 in0.0 mm 0.00 in0.0 mm
10:00 AM 35.4°F1.9°C 26.2°F-3.2°C 69% 2.0 mph SSW3.2 kmh SSW 6.0 mph9.7 kmh 29.59 in1002.0 mb 0.00 in0.0 mm 0.00 in0.0 mm 0.00 in0.0 mm
10:05 AM 35.8°F2.1°C 25.9°F-3.4°C 67% 2.9 mph SW4.7 kmh SW 8.1 mph13.0 kmh 29.59 in1002.0 mb 0.00 in0.0 mm 0.00 in0.0 mm 0.00 in0.0 mm
10:10 AM 36.1°F2.3°C 26.2°F-3.2°C 67% 2.9 mph S4.7 kmh S 10.0 mph16.1 kmh 29.58 in1001.7 mb 0.00 in0.0 mm 0.00 in0.0 mm 0.00 in0.0 mm
10:15 AM 36.5°F2.5°C 26.2°F-3.2°C 66% 2.9 mph S4.7 kmh S 6.0 mph9.7 kmh 29.58 in1001.7 mb 0.00 in0.0 mm 0.00 in0.0 mm 0.00 in0.0 mm
10:20 AM 36.9°F2.7°C 26.2°F-3.2°C 65% 2.9 mph SW4.7 kmh SW 10.1 mph16.3 kmh 29.58 in1001.7 mb 0.00 in0.0 mm 0.00 in0.0 mm 0.00 in0.0 mm
10:25 AM 37.2°F2.9°C 26.6°F-3.0°C 65% 2.9 mph SW4.7 kmh SW 4.9 mph7.9 kmh 29.58 in1001.7 mb 0.00 in0.0 mm 0.00 in0.0 mm 0.00 in0.0 mm
10:30 AM 37.6°F3.1°C 26.6°F-3.0°C 64% 2.9 mph S4.7 kmh S 8.1 mph13.0 kmh 29.57 in1001.4 mb 0.00 in0.0 mm 0.00 in0.0 mm 0.00 in0.0 mm
10:35 AM 37.9°F3.3°C 26.8°F-2.9°C 64% 2.9 mph SSE4.7 kmh SSE 8.9 mph14.3 kmh 29.57 in1001.4 mb 0.00 in0.0 mm 0.00 in0.0 mm 0.00 in0.0 mm
10:40 AM 38.5°F3.6°C 27.0°F-2.8°C 63% 2.9 mph SW4.7 kmh SW 4.9 mph7.9 kmh 29.57 in1001.4 mb 0.00 in0.0 mm 0.00 in0.0 mm 0.00 in0.0 mm
10:45 AM 38.8°F3.8°C 27.3°F-2.6°C 63% 2.0 mph S3.2 kmh S 6.0 mph9.7 kmh 29.56 in1001.0 mb 0.00 in0.0 mm 0.00 in0.0 mm 0.00 in0.0 mm
10:50 AM 39.6°F4.2°C 28.4°F-2.0°C 64% 2.0 mph SSE3.2 kmh SSE 6.0 mph9.7 kmh 29.56 in1001.0 mb 0.00 in0.0 mm 0.00 in0.0 mm 0.00 in0.0 mm
10:55 AM 39.9°F4.4°C 27.5°F-2.5°C 61% 2.9 mph S4.7 kmh S 6.9 mph11.1 kmh 29.56 in1001.0 mb 0.00 in0.0 mm 0.00 in0.0 mm 0.00 in0.0 mm
11:00 AM 40.5°F4.7°C 28.0°F-2.2°C 61% 4.0 mph SSW6.4 kmh SSW 6.9 mph11.1 kmh 29.55 in1000.7 mb 0.00 in0.0 mm 0.00 in0.0 mm 0.00 in0.0 mm
11:05 AM 40.6°F4.8°C 28.2°F-2.1°C 61% 2.9 mph S4.7 kmh S 8.1 mph13.0 kmh 29.54 in1000.3 mb 0.00 in0.0 mm 0.00 in0.0 mm 0.00 in0.0 mm
11:10 AM 41.2°F5.1°C 28.4°F-2.0°C 60% 2.0 mph SW3.2 kmh SW 6.0 mph9.7 kmh 29.54 in1000.3 mb 0.00 in0.0 mm 0.00 in0.0 mm 0.00 in0.0 mm
11:15 AM 41.5°F5.3°C 28.8°F-1.8°C 60% 2.0 mph SW3.2 kmh SW 7.0 mph11.3 kmh 29.54 in1000.3 mb 0.00 in0.0 mm 0.00 in0.0 mm 0.00 in0.0 mm
11:20 AM 42.3°F5.7°C 28.9°F-1.7°C 59% 2.0 mph SSW3.2 kmh SSW 6.0 mph9.7 kmh 29.53 in1000.0 mb 0.00 in0.0 mm 0.00 in0.0 mm 0.00 in0.0 mm
11:25 AM 42.4°F5.8°C 28.8°F-1.8°C 58% 2.9 mph S4.7 kmh S 7.0 mph11.3 kmh 29.53 in1000.0 mb 0.00 in0.0 mm 0.00 in0.0 mm 0.00 in0.0 mm
11:30 AM 42.6°F5.9°C 29.3°F-1.5°C 59% 2.9 mph S4.7 kmh S 4.0 mph6.4 kmh 29.52 in999.7 mb 0.00 in0.0 mm 0.00 in0.0 mm 0.00 in0.0 mm
11:35 AM 43.0°F6.1°C 29.3°F-1.5°C 58% 2.9 mph S4.7 kmh S 10.1 mph16.3 kmh 29.51 in999.3 mb 0.00 in0.0 mm 0.00 in0.0 mm 0.00 in0.0 mm
11:40 AM 42.8°F6.0°C 29.1°F-1.6°C 58% 4.0 mph SW6.4 kmh SW 10.1 mph16.3 kmh 29.50 in999.0 mb 0.00 in0.0 mm 0.00 in0.0 mm 0.00 in0.0 mm
11:45 AM 42.8°F6.0°C 29.1°F-1.6°C 58% 2.9 mph S4.7 kmh S 8.1 mph13.0 kmh 29.50 in999.0 mb 0.00 in0.0 mm 0.00 in0.0 mm 0.00 in0.0 mm
11:50 AM 43.0°F6.1°C 29.3°F-1.5°C 58% 2.9 mph SE4.7 kmh SE 11.0 mph17.7 kmh 29.49 in998.6 mb 0.00 in0.0 mm 0.00 in0.0 mm 0.00 in0.0 mm
11:55 AM 42.8°F6.0°C 29.5°F-1.4°C 59% 2.9 mph S4.7 kmh S 11.0 mph17.7 kmh 29.49 in998.6 mb 0.00 in0.0 mm 0.00 in0.0 mm 0.00 in0.0 mm
12:00 PM 43.0°F6.1°C 29.3°F-1.5°C 58% 2.9 mph SSE4.7 kmh SSE 11.0 mph17.7 kmh 29.48 in998.3 mb 0.00 in0.0 mm 0.00 in0.0 mm 0.00 in0.0 mm
12:05 PM 43.2°F6.2°C 29.3°F-1.5°C 58% 4.0 mph WSW6.4 kmh WSW 11.0 mph17.7 kmh 29.48 in998.3 mb 0.00 in0.0 mm 0.00 in0.0 mm 0.00 in0.0 mm
12:10 PM 43.3°F6.3°C 30.0°F-1.1°C 59% 4.0 mph SSE6.4 kmh SSE 8.9 mph14.3 kmh 29.47 in998.0 mb 0.00 in0.0 mm 0.00 in0.0 mm 0.00 in0.0 mm
12:15 PM 43.5°F6.4°C 29.7°F-1.3°C 58% 4.0 mph SW6.4 kmh SW 11.0 mph17.7 kmh 29.47 in998.0 mb 0.00 in0.0 mm 0.00 in0.0 mm 0.00 in0.0 mm
12:20 PM 43.7°F6.5°C 29.8°F-1.2°C 58% 2.9 mph S4.7 kmh S 6.9 mph11.1 kmh 29.47 in998.0 mb 0.00 in0.0 mm 0.00 in0.0 mm 0.00 in0.0 mm
12:25 PM 43.9°F6.6°C 30.0°F-1.1°C 58% 4.0 mph S6.4 kmh S 14.1 mph22.7 kmh 29.46 in997.6 mb 0.00 in0.0 mm 0.00 in0.0 mm 0.00 in0.0 mm
12:30 PM 44.1°F6.7°C 30.2°F-1.0°C 58% 4.0 mph S6.4 kmh S 8.1 mph13.0 kmh 29.47 in998.0 mb 0.00 in0.0 mm 0.00 in0.0 mm 0.00 in0.0 mm
12:35 PM 44.1°F6.7°C 30.2°F-1.0°C 58% 2.9 mph S4.7 kmh S 8.9 mph14.3 kmh 29.46 in997.6 mb 0.00 in0.0 mm 0.00 in0.0 mm 0.00 in0.0 mm
12:40 PM 44.2°F6.8°C 30.7°F-0.7°C 59% 2.9 mph SSW4.7 kmh SSW 4.0 mph6.4 kmh 29.46 in997.6 mb 0.00 in0.0 mm 0.00 in0.0 mm 0.00 in0.0 mm
12:45 PM 44.4°F6.9°C 30.9°F-0.6°C 59% 2.0 mph SSW3.2 kmh SSW 4.9 mph7.9 kmh 29.46 in997.6 mb 0.00 in0.0 mm 0.00 in0.0 mm 0.00 in0.0 mm
12:50 PM 44.8°F7.1°C 30.9°F-0.6°C 58% 2.0 mph SW3.2 kmh SW 6.0 mph9.7 kmh 29.45 in997.3 mb 0.00 in0.0 mm 0.00 in0.0 mm 0.00 in0.0 mm
12:55 PM 45.1°F7.3°C 31.6°F-0.2°C 59% 2.9 mph SW4.7 kmh SW 8.9 mph14.3 kmh 29.45 in997.3 mb 0.00 in0.0 mm 0.00 in0.0 mm 0.00 in0.0 mm
01:00 PM 45.5°F7.5°C 30.7°F-0.7°C 56% 4.0 mph SW6.4 kmh SW 8.1 mph13.0 kmh 29.45 in997.3 mb 0.00 in0.0 mm 0.00 in0.0 mm 0.00 in0.0 mm
01:05 PM 45.1°F7.3°C 30.7°F-0.7°C 57% 4.0 mph SSW6.4 kmh SSW 9.0 mph14.5 kmh 29.44 in997.0 mb 0.00 in0.0 mm 0.00 in0.0 mm 0.00 in0.0 mm
01:10 PM 45.1°F7.3°C 30.7°F-0.7°C 57% 4.0 mph S6.4 kmh S 13.0 mph20.9 kmh 29.43 in996.6 mb 0.00 in0.0 mm 0.00 in0.0 mm 0.00 in0.0 mm
01:15 PM 45.3°F7.4°C 30.9°F-0.6°C 57% 4.0 mph SSE6.4 kmh SSE 10.1 mph16.3 kmh 29.43 in996.6 mb 0.00 in0.0 mm 0.00 in0.0 mm 0.00 in0.0 mm
01:20 PM 45.3°F7.4°C 30.9°F-0.6°C 57% 4.9 mph WSW7.9 kmh WSW 11.0 mph17.7 kmh 29.43 in996.6 mb 0.00 in0.0 mm 0.00 in0.0 mm 0.00 in0.0 mm
01:25 PM 45.3°F7.4°C 31.8°F-0.1°C 59% 4.0 mph SW6.4 kmh SW 6.9 mph11.1 kmh 29.42 in996.3 mb 0.00 in0.0 mm 0.00 in0.0 mm 0.00 in0.0 mm
01:30 PM 45.5°F7.5°C 31.6°F-0.2°C 58% 2.9 mph S4.7 kmh S 10.1 mph16.3 kmh 29.43 in996.6 mb 0.00 in0.0 mm 0.00 in0.0 mm 0.00 in0.0 mm
01:35 PM 45.7°F7.6°C 31.8°F-0.1°C 58% 2.9 mph SSW4.7 kmh SSW 10.1 mph16.3 kmh 29.43 in996.6 mb 0.00 in0.0 mm 0.00 in0.0 mm 0.00 in0.0 mm
01:40 PM 45.7°F7.6°C 31.3°F-0.4°C 57% 2.9 mph S4.7 kmh S 6.0 mph9.7 kmh 29.43 in996.6 mb 0.00 in0.0 mm 0.00 in0.0 mm 0.00 in0.0 mm
01:45 PM 45.3°F7.4°C 30.6°F-0.8°C 56% 4.0 mph SW6.4 kmh SW 11.0 mph17.7 kmh 29.43 in996.6 mb 0.00 in0.0 mm 0.00 in0.0 mm 0.00 in0.0 mm
01:50 PM 45.3°F7.4°C 30.9°F-0.6°C 57% 4.9 mph S7.9 kmh S 13.0 mph20.9 kmh 29.43 in996.6 mb 0.00 in0.0 mm 0.00 in0.0 mm 0.00 in0.0 mm
01:56 PM 45.1°F7.3°C 30.7°F-0.7°C 57% 4.0 mph S6.4 kmh S 11.0 mph17.7 kmh 29.42 in996.3 mb 0.00 in0.0 mm 0.00 in0.0 mm 0.00 in0.0 mm
02:01 PM 45.1°F7.3°C 30.7°F-0.7°C 57% 2.9 mph S4.7 kmh S 8.9 mph14.3 kmh 29.42 in996.3 mb 0.00 in0.0 mm 0.00 in0.0 mm 0.00 in0.0 mm
02:06 PM 45.1°F7.3°C 31.3°F-0.4°C 58% 2.9 mph SW4.7 kmh SW 6.0 mph9.7 kmh 29.42 in996.3 mb 0.00 in0.0 mm 0.00 in0.0 mm 0.00 in0.0 mm
02:11 PM 45.3°F7.4°C 31.5°F-0.3°C 58% 2.9 mph S4.7 kmh S 8.1 mph13.0 kmh 29.41 in995.9 mb 0.00 in0.0 mm 0.00 in0.0 mm 0.00 in0.0 mm
02:16 PM 45.5°F7.5°C 31.6°F-0.2°C 58% 2.9 mph SSE4.7 kmh SSE 6.0 mph9.7 kmh 29.41 in995.9 mb 0.00 in0.0 mm 0.00 in0.0 mm 0.00 in0.0 mm
02:21 PM 45.9°F7.7°C 32.0°F0.0°C 58% 2.9 mph SW4.7 kmh SW 4.9 mph7.9 kmh 29.41 in995.9 mb 0.00 in0.0 mm 0.00 in0.0 mm 0.00 in0.0 mm
02:26 PM 46.0°F7.8°C 32.0°F0.0°C 58% 2.0 mph SSW3.2 kmh SSW 8.1 mph13.0 kmh 29.41 in995.9 mb 0.00 in0.0 mm 0.00 in0.0 mm 0.00 in0.0 mm
02:31 PM 46.2°F7.9°C 31.8°F-0.1°C 57% 2.9 mph SSW4.7 kmh SSW 11.0 mph17.7 kmh 29.41 in995.9 mb 0.00 in0.0 mm 0.00 in0.0 mm 0.00 in0.0 mm
02:36 PM 46.2°F7.9°C 31.8°F-0.1°C 57% 4.0 mph SSW6.4 kmh SSW 6.9 mph11.1 kmh 29.41 in995.9 mb 0.00 in0.0 mm 0.00 in0.0 mm 0.00 in0.0 mm
02:41 PM 46.4°F8.0°C 32.0°F0.0°C 57% 2.9 mph SSW4.7 kmh SSW 8.1 mph13.0 kmh 29.41 in995.9 mb 0.00 in0.0 mm 0.00 in0.0 mm 0.00 in0.0 mm
02:46 PM 46.4°F8.0°C 32.0°F0.0°C 57% 2.9 mph SW4.7 kmh SW 4.9 mph7.9 kmh 29.41 in995.9 mb 0.00 in0.0 mm 0.00 in0.0 mm 0.00 in0.0 mm
02:51 PM 46.2°F7.9°C 32.2°F0.1°C 58% 2.0 mph SSW3.2 kmh SSW 4.9 mph7.9 kmh 29.41 in995.9 mb 0.00 in0.0 mm 0.00 in0.0 mm 0.00 in0.0 mm
02:56 PM 46.2°F7.9°C 32.2°F0.1°C 58% 2.0 mph SE3.2 kmh SE 4.9 mph7.9 kmh 29.41 in995.9 mb 0.00 in0.0 mm 0.00 in0.0 mm 0.00 in0.0 mm
03:01 PM 46.4°F8.0°C 32.4°F0.2°C 58% 2.9 mph SSW4.7 kmh SSW 6.9 mph11.1 kmh 29.40 in995.6 mb 0.00 in0.0 mm 0.00 in0.0 mm 0.00 in0.0 mm
03:06 PM 46.6°F8.1°C 32.5°F0.3°C 58% 2.9 mph SSW4.7 kmh SSW 8.1 mph13.0 kmh 29.40 in995.6 mb 0.00 in0.0 mm 0.00 in0.0 mm 0.00 in0.0 mm
03:11 PM 47.1°F8.4°C 32.7°F0.4°C 57% 2.9 mph SW4.7 kmh SW 12.1 mph19.5 kmh 29.39 in995.3 mb 0.00 in0.0 mm 0.00 in0.0 mm 0.00 in0.0 mm
03:16 PM 47.3°F8.5°C 32.9°F0.5°C 57% 2.9 mph SW4.7 kmh SW 8.1 mph13.0 kmh 29.39 in995.3 mb 0.00 in0.0 mm 0.00 in0.0 mm 0.00 in0.0 mm
03:21 PM 47.7°F8.7°C 32.7°F0.4°C 56% 2.9 mph S4.7 kmh S 12.1 mph19.5 kmh 29.39 in995.3 mb 0.00 in0.0 mm 0.00 in0.0 mm 0.00 in0.0 mm
03:26 PM 48.0°F8.9°C 33.1°F0.6°C 56% 2.9 mph SW4.7 kmh SW 8.9 mph14.3 kmh 29.39 in995.3 mb 0.00 in0.0 mm 0.00 in0.0 mm 0.00 in0.0 mm
03:31 PM 48.0°F8.9°C 32.5°F0.3°C 55% 2.9 mph SSW4.7 kmh SSW 8.9 mph14.3 kmh 29.39 in995.3 mb 0.00 in0.0 mm 0.00 in0.0 mm 0.00 in0.0 mm
03:36 PM 48.0°F8.9°C 33.1°F0.6°C 56% 2.9 mph SE4.7 kmh SE 8.1 mph13.0 kmh 29.40 in995.6 mb 0.00 in0.0 mm 0.00 in0.0 mm 0.00 in0.0 mm
03:41 PM 47.8°F8.8°C 32.9°F0.5°C 56% 2.9 mph SSW4.7 kmh SSW 6.9 mph11.1 kmh 29.40 in995.6 mb 0.00 in0.0 mm 0.00 in0.0 mm 0.00 in0.0 mm
03:46 PM 47.8°F8.8°C 32.9°F0.5°C 56% 2.0 mph SSE3.2 kmh SSE 4.9 mph7.9 kmh 29.40 in995.6 mb 0.00 in0.0 mm 0.00 in0.0 mm 0.00 in0.0 mm
03:51 PM 47.8°F8.8°C 32.9°F0.5°C 56% 2.9 mph SSW4.7 kmh SSW 8.0 mph12.9 kmh 29.40 in995.6 mb 0.00 in0.0 mm 0.00 in0.0 mm 0.00 in0.0 mm
03:56 PM 47.8°F8.8°C 33.3°F0.7°C 57% 2.9 mph WSW4.7 kmh WSW 4.0 mph6.4 kmh 29.40 in995.6 mb 0.00 in0.0 mm 0.00 in0.0 mm 0.00 in0.0 mm
04:01 PM 47.8°F8.8°C 33.3°F0.7°C 57% 2.9 mph SSW4.7 kmh SSW 6.9 mph11.1 kmh 29.40 in995.6 mb 0.00 in0.0 mm 0.00 in0.0 mm 0.00 in0.0 mm
04:06 PM 48.0°F8.9°C 33.1°F0.6°C 56% 4.0 mph SSW6.4 kmh SSW 11.0 mph17.7 kmh 29.40 in995.6 mb 0.00 in0.0 mm 0.00 in0.0 mm 0.00 in0.0 mm
04:11 PM 48.4°F9.1°C 33.4°F0.8°C 56% 4.0 mph SW6.4 kmh SW 13.0 mph20.9 kmh 29.39 in995.3 mb 0.00 in0.0 mm 0.00 in0.0 mm 0.00 in0.0 mm
04:16 PM 48.4°F9.1°C 33.4°F0.8°C 56% 4.0 mph SSW6.4 kmh SSW 8.9 mph14.3 kmh 29.39 in995.3 mb 0.00 in0.0 mm 0.00 in0.0 mm 0.00 in0.0 mm
04:21 PM 48.4°F9.1°C 33.4°F0.8°C 56% 2.9 mph SSE4.7 kmh SSE 6.9 mph11.1 kmh 29.39 in995.3 mb 0.00 in0.0 mm 0.00 in0.0 mm 0.00 in0.0 mm
04:26 PM 48.4°F9.1°C 33.4°F0.8°C 56% 2.9 mph S4.7 kmh S 6.0 mph9.7 kmh 29.40 in995.6 mb 0.00 in0.0 mm 0.00 in0.0 mm 0.00 in0.0 mm
04:31 PM 48.4°F9.1°C 33.4°F0.8°C 56% 2.9 mph S4.7 kmh S 7.0 mph11.3 kmh 29.40 in995.6 mb 0.00 in0.0 mm 0.00 in0.0 mm 0.00 in0.0 mm
04:36 PM 48.4°F9.1°C 33.4°F0.8°C 56% 4.0 mph SSW6.4 kmh SSW 9.0 mph14.5 kmh 29.40 in995.6 mb 0.00 in0.0 mm 0.00 in0.0 mm 0.00 in0.0 mm
04:41 PM 48.2°F9.0°C 33.3°F0.7°C 56% 2.9 mph SSW4.7 kmh SSW 6.0 mph9.7 kmh 29.40 in995.6 mb 0.00 in0.0 mm 0.00 in0.0 mm 0.00 in0.0 mm
04:46 PM 48.0°F8.9°C 33.4°F0.8°C 57% 2.0 mph S3.2 kmh S 4.9 mph7.9 kmh 29.39 in995.3 mb 0.00 in0.0 mm 0.00 in0.0 mm 0.00 in0.0 mm
04:51 PM 47.8°F8.8°C 33.3°F0.7°C 57% 2.0 mph SW3.2 kmh SW 6.0 mph9.7 kmh 29.40 in995.6 mb 0.00 in0.0 mm 0.00 in0.0 mm 0.00 in0.0 mm
04:56 PM 47.7°F8.7°C 33.3°F0.7°C 57% 2.0 mph SW3.2 kmh SW 6.0 mph9.7 kmh 29.40 in995.6 mb 0.00 in0.0 mm 0.00 in0.0 mm 0.00 in0.0 mm
05:01 PM 47.5°F8.6°C 33.4°F0.8°C 58% 2.0 mph SSW3.2 kmh SSW 4.9 mph7.9 kmh 29.40 in995.6 mb 0.00 in0.0 mm 0.00 in0.0 mm 0.00 in0.0 mm
05:06 PM 47.1°F8.4°C 33.1°F0.6°C 58% 2.0 mph SW3.2 kmh SW 2.9 mph4.7 kmh 29.40 in995.6 mb 0.00 in0.0 mm 0.00 in0.0 mm 0.00 in0.0 mm
05:11 PM 46.9°F8.3°C 33.4°F0.8°C 59% 0.9 mph SSW1.4 kmh SSW 2.9 mph4.7 kmh 29.40 in995.6 mb 0.00 in0.0 mm 0.00 in0.0 mm 0.00 in0.0 mm
05:16 PM 46.8°F8.2°C 33.3°F0.7°C 59% 0.9 mph SSW1.4 kmh SSW 0.9 mph1.4 kmh 29.40 in995.6 mb 0.00 in0.0 mm 0.00 in0.0 mm 0.00 in0.0 mm
05:21 PM 46.4°F8.0°C 33.3°F0.7°C 60% 0.9 mph SW1.4 kmh SW 2.0 mph3.2 kmh 29.40 in995.6 mb 0.00 in0.0 mm 0.00 in0.0 mm 0.00 in0.0 mm
05:26 PM 46.2°F7.9°C 33.1°F0.6°C 60% 0.9 mph SW1.4 kmh SW 2.0 mph3.2 kmh 29.41 in995.9 mb 0.00 in0.0 mm 0.00 in0.0 mm 0.00 in0.0 mm
05:31 PM 45.9°F7.7°C 33.3°F0.7°C 61% Calm Calm 0.9 mph1.4 kmh 29.41 in995.9 mb 0.00 in0.0 mm 0.00 in0.0 mm 0.00 in0.0 mm
05:36 PM 45.7°F7.6°C 33.4°F0.8°C 62% Calm Calm 0.9 mph1.4 kmh 29.40 in995.6 mb 0.00 in0.0 mm 0.00 in0.0 mm 0.00 in0.0 mm
05:41 PM 45.5°F7.5°C 33.3°F0.7°C 62% Calm Calm 2.0 mph3.2 kmh 29.41 in995.9 mb 0.00 in0.0 mm 0.00 in0.0 mm 0.00 in0.0 mm
05:46 PM 45.1°F7.3°C 33.3°F0.7°C 63% Calm Calm 2.0 mph3.2 kmh 29.41 in995.9 mb 0.00 in0.0 mm 0.00 in0.0 mm 0.00 in0.0 mm
05:51 PM 45.0°F7.2°C 33.1°F0.6°C 63% Calm Calm 0.9 mph1.4 kmh 29.40 in995.6 mb 0.00 in0.0 mm 0.00 in0.0 mm 0.00 in0.0 mm
05:56 PM 44.8°F7.1°C 32.9°F0.5°C 63% Calm Calm 0.9 mph1.4 kmh 29.40 in995.6 mb 0.00 in0.0 mm 0.00 in0.0 mm 0.00 in0.0 mm
06:01 PM 44.8°F7.1°C 33.3°F0.7°C 64% Calm Calm 2.0 mph3.2 kmh 29.40 in995.6 mb 0.00 in0.0 mm 0.00 in0.0 mm 0.00 in0.0 mm
06:06 PM 44.8°F7.1°C 33.3°F0.7°C 64% 0.9 mph SSW1.4 kmh SSW 2.9 mph4.7 kmh 29.40 in995.6 mb 0.00 in0.0 mm 0.00 in0.0 mm 0.00 in0.0 mm
06:11 PM 44.8°F7.1°C 33.3°F0.7°C 64% 0.9 mph S1.4 kmh S 2.0 mph3.2 kmh 29.40 in995.6 mb 0.00 in0.0 mm 0.00 in0.0 mm 0.00 in0.0 mm
06:16 PM 44.6°F7.0°C 33.3°F0.7°C 64% 0.9 mph SSE1.4 kmh SSE 2.9 mph4.7 kmh 29.40 in995.6 mb 0.00 in0.0 mm 0.00 in0.0 mm 0.00 in0.0 mm
06:21 PM 44.8°F7.1°C 33.8°F1.0°C 65% 2.0 mph SW3.2 kmh SW 7.0 mph11.3 kmh 29.40 in995.6 mb 0.00 in0.0 mm 0.00 in0.0 mm 0.00 in0.0 mm
06:26 PM 44.8°F7.1°C 33.3°F0.7°C 64% 2.0 mph S3.2 kmh S 2.9 mph4.7 kmh 29.39 in995.3 mb 0.00 in0.0 mm 0.00 in0.0 mm 0.00 in0.0 mm
06:31 PM 44.6°F7.0°C 33.6°F0.9°C 65% 0.9 mph SSW1.4 kmh SSW 4.0 mph6.4 kmh 29.40 in995.6 mb 0.00 in0.0 mm 0.00 in0.0 mm 0.00 in0.0 mm
06:36 PM 44.4°F6.9°C 33.4°F0.8°C 65% 0.9 mph S1.4 kmh S 2.0 mph3.2 kmh 29.40 in995.6 mb 0.00 in0.0 mm 0.00 in0.0 mm 0.00 in0.0 mm
06:41 PM 44.2°F6.8°C 33.3°F0.7°C 65% 0.9 mph SW1.4 kmh SW 4.0 mph6.4 kmh 29.40 in995.6 mb 0.00 in0.0 mm 0.00 in0.0 mm 0.00 in0.0 mm
06:46 PM 44.1°F6.7°C 33.4°F0.8°C 66% 0.9 mph SSW1.4 kmh SSW 2.9 mph4.7 kmh 29.40 in995.6 mb 0.00 in0.0 mm 0.00 in0.0 mm 0.00 in0.0 mm
06:51 PM 44.1°F6.7°C 33.4°F0.8°C 66% 0.9 mph SW1.4 kmh SW 2.0 mph3.2 kmh 29.40 in995.6 mb 0.00 in0.0 mm 0.00 in0.0 mm 0.00 in0.0 mm
06:56 PM 43.9°F6.6°C 33.6°F0.9°C 67% Calm Calm 2.0 mph3.2 kmh 29.40 in995.6 mb 0.00 in0.0 mm 0.00 in0.0 mm 0.00 in0.0 mm
07:02 PM 43.9°F6.6°C 33.6°F0.9°C 67% Calm Calm 2.0 mph3.2 kmh 29.39 in995.3 mb 0.00 in0.0 mm 0.00 in0.0 mm 0.00 in0.0 mm
07:07 PM 43.9°F6.6°C 33.6°F0.9°C 67% Calm Calm 2.0 mph3.2 kmh 29.39 in995.3 mb 0.00 in0.0 mm 0.00 in0.0 mm 0.00 in0.0 mm
07:12 PM 43.7°F6.5°C 33.4°F0.8°C 67% Calm Calm 2.0 mph3.2 kmh 29.39 in995.3 mb 0.00 in0.0 mm 0.00 in0.0 mm 0.00 in0.0 mm
07:17 PM 43.7°F6.5°C 33.8°F1.0°C 68% Calm Calm 0.9 mph1.4 kmh 29.39 in995.3 mb 0.00 in0.0 mm 0.00 in0.0 mm 0.00 in0.0 mm
07:22 PM 43.9°F6.6°C 34.0°F1.1°C 68% 0.9 mph SW1.4 kmh SW 3.0 mph4.8 kmh 29.40 in995.6 mb 0.00 in0.0 mm 0.00 in0.0 mm 0.00 in0.0 mm
07:27 PM 43.9°F6.6°C 34.0°F1.1°C 68% 0.9 mph SW1.4 kmh SW 2.0 mph3.2 kmh 29.40 in995.6 mb 0.00 in0.0 mm 0.00 in0.0 mm 0.00 in0.0 mm
07:32 PM 43.9°F6.6°C 34.0°F1.1°C 68% 0.9 mph SW1.4 kmh SW 2.0 mph3.2 kmh 29.40 in995.6 mb 0.00 in0.0 mm 0.00 in0.0 mm 0.00 in0.0 mm
07:37 PM 43.9°F6.6°C 34.0°F1.1°C 68% 0.9 mph S1.4 kmh S 4.0 mph6.4 kmh 29.39 in995.3 mb 0.00 in0.0 mm 0.00 in0.0 mm 0.00 in0.0 mm
07:42 PM 43.9°F6.6°C 34.0°F1.1°C 68% 0.9 mph SSW1.4 kmh SSW 2.0 mph3.2 kmh 29.39 in995.3 mb 0.00 in0.0 mm 0.00 in0.0 mm 0.00 in0.0 mm
07:47 PM 43.9°F6.6°C 34.0°F1.1°C 68% 0.9 mph SW1.4 kmh SW 5.0 mph8.0 kmh 29.39 in995.3 mb 0.00 in0.0 mm 0.00 in0.0 mm 0.00 in0.0 mm
07:52 PM 43.9°F6.6°C 34.0°F1.1°C 68% 0.9 mph SSW1.4 kmh SSW 6.0 mph9.7 kmh 29.39 in995.3 mb 0.00 in0.0 mm 0.00 in0.0 mm 0.00 in0.0 mm
07:57 PM 43.9°F6.6°C 34.0°F1.1°C 68% 0.9 mph SE1.4 kmh SE 4.0 mph6.4 kmh 29.39 in995.3 mb 0.00 in0.0 mm 0.00 in0.0 mm 0.00 in0.0 mm
08:02 PM 44.1°F6.7°C 34.2°F1.2°C 68% 2.0 mph S3.2 kmh S 4.0 mph6.4 kmh 29.38 in994.9 mb 0.00 in0.0 mm 0.00 in0.0 mm 0.00 in0.0 mm
08:07 PM 44.1°F6.7°C 34.2°F1.2°C 68% 0.9 mph SW1.4 kmh SW 4.0 mph6.4 kmh 29.38 in994.9 mb 0.00 in0.0 mm 0.00 in0.0 mm 0.00 in0.0 mm
08:12 PM 44.1°F6.7°C 34.2°F1.2°C 68% 0.9 mph SW1.4 kmh SW 5.0 mph8.0 kmh 29.38 in994.9 mb 0.00 in0.0 mm 0.00 in0.0 mm 0.00 in0.0 mm
08:17 PM 44.2°F6.8°C 34.3°F1.3°C 68% 2.0 mph SSW3.2 kmh SSW 4.9 mph7.9 kmh 29.38 in994.9 mb 0.00 in0.0 mm 0.00 in0.0 mm 0.00 in0.0 mm
08:22 PM 44.2°F6.8°C 34.3°F1.3°C 68% 2.0 mph SSW3.2 kmh SSW 4.9 mph7.9 kmh 29.38 in994.9 mb 0.00 in0.0 mm 0.00 in0.0 mm 0.00 in0.0 mm
08:27 PM 44.4°F6.9°C 34.5°F1.4°C 68% 0.9 mph SW1.4 kmh SW 2.9 mph4.7 kmh 29.37 in994.6 mb 0.00 in0.0 mm 0.00 in0.0 mm 0.00 in0.0 mm
08:32 PM 44.4°F6.9°C 34.5°F1.4°C 68% 2.0 mph SSW3.2 kmh SSW 4.0 mph6.4 kmh 29.38 in994.9 mb 0.00 in0.0 mm 0.00 in0.0 mm 0.00 in0.0 mm
08:37 PM 44.4°F6.9°C 34.5°F1.4°C 68% 0.9 mph SSW1.4 kmh SSW 4.0 mph6.4 kmh 29.38 in994.9 mb 0.00 in0.0 mm 0.00 in0.0 mm 0.00 in0.0 mm
08:42 PM 44.2°F6.8°C 34.7°F1.5°C 69% 0.9 mph SW1.4 kmh SW 2.9 mph4.7 kmh 29.38 in994.9 mb 0.00 in0.0 mm 0.00 in0.0 mm 0.00 in0.0 mm
08:47 PM 44.1°F6.7°C 34.5°F1.4°C 69% 0.9 mph SW1.4 kmh SW 4.0 mph6.4 kmh 29.38 in994.9 mb 0.00 in0.0 mm 0.00 in0.0 mm 0.00 in0.0 mm
08:52 PM 44.1°F6.7°C 34.9°F1.6°C 70% 0.9 mph S1.4 kmh S 6.0 mph9.7 kmh 29.37 in994.6 mb 0.00 in0.0 mm 0.00 in0.0 mm 0.00 in0.0 mm
08:57 PM 44.1°F6.7°C 34.9°F1.6°C 70% 2.0 mph SW3.2 kmh SW 6.0 mph9.7 kmh 29.38 in994.9 mb 0.00 in0.0 mm 0.00 in0.0 mm 0.00 in0.0 mm
09:02 PM 44.1°F6.7°C 34.9°F1.6°C 70% 2.0 mph SSW3.2 kmh SSW 4.0 mph6.4 kmh 29.38 in994.9 mb 0.00 in0.0 mm 0.00 in0.0 mm 0.00 in0.0 mm
09:07 PM 44.1°F6.7°C 35.2°F1.8°C 71% 0.9 mph SW1.4 kmh SW 2.9 mph4.7 kmh 29.38 in994.9 mb 0.00 in0.0 mm 0.00 in0.0 mm 0.00 in0.0 mm
09:12 PM 44.1°F6.7°C 35.2°F1.8°C 71% 2.0 mph SW3.2 kmh SW 4.0 mph6.4 kmh 29.38 in994.9 mb 0.00 in0.0 mm 0.00 in0.0 mm 0.00 in0.0 mm
09:17 PM 44.1°F6.7°C 35.2°F1.8°C 71% 2.0 mph SSW3.2 kmh SSW 4.9 mph7.9 kmh 29.38 in994.9 mb 0.00 in0.0 mm 0.00 in0.0 mm 0.00 in0.0 mm
09:22 PM 44.2°F6.8°C 35.4°F1.9°C 71% 2.0 mph S3.2 kmh S 4.9 mph7.9 kmh 29.37 in994.6 mb 0.00 in0.0 mm 0.00 in0.0 mm 0.00 in0.0 mm
09:27 PM 44.2°F6.8°C 35.4°F1.9°C 71% 2.0 mph SSW3.2 kmh SSW 6.0 mph9.7 kmh 29.37 in994.6 mb 0.00 in0.0 mm 0.00 in0.0 mm 0.00 in0.0 mm
09:32 PM 44.1°F6.7°C 35.2°F1.8°C 71% 2.0 mph SW3.2 kmh SW 4.9 mph7.9 kmh 29.37 in994.6 mb 0.00 in0.0 mm 0.00 in0.0 mm 0.00 in0.0 mm
09:37 PM 44.2°F6.8°C 35.4°F1.9°C 71% 2.0 mph SW3.2 kmh SW 6.0 mph9.7 kmh 29.37 in994.6 mb 0.00 in0.0 mm 0.00 in0.0 mm 0.00 in0.0 mm
09:42 PM 44.2°F6.8°C 35.4°F1.9°C 71% 2.0 mph SW3.2 kmh SW 4.0 mph6.4 kmh 29.37 in994.6 mb 0.00 in0.0 mm 0.00 in0.0 mm 0.00 in0.0 mm
09:47 PM 44.2°F6.8°C 35.4°F1.9°C 71% 2.0 mph SW3.2 kmh SW 6.0 mph9.7 kmh 29.37 in994.6 mb 0.00 in0.0 mm 0.00 in0.0 mm 0.00 in0.0 mm
09:52 PM 44.2°F6.8°C 35.1°F1.7°C 70% 2.0 mph SW3.2 kmh SW 4.9 mph7.9 kmh 29.37 in994.6 mb 0.00 in0.0 mm 0.00 in0.0 mm 0.00 in0.0 mm
09:57 PM 44.2°F6.8°C 35.4°F1.9°C 71% 2.0 mph SW3.2 kmh SW 2.0 mph3.2 kmh 29.37 in994.6 mb 0.00 in0.0 mm 0.00 in0.0 mm 0.00 in0.0 mm
10:02 PM 44.1°F6.7°C 35.2°F1.8°C 71% 2.0 mph S3.2 kmh S 4.9 mph7.9 kmh 29.37 in994.6 mb 0.00 in0.0 mm 0.00 in0.0 mm 0.00 in0.0 mm
10:07 PM 44.1°F6.7°C 35.2°F1.8°C 71% 2.0 mph SW3.2 kmh SW 4.0 mph6.4 kmh 29.37 in994.6 mb 0.00 in0.0 mm 0.00 in0.0 mm 0.00 in0.0 mm
10:12 PM 44.1°F6.7°C 35.2°F1.8°C 71% 0.9 mph SW1.4 kmh SW 2.9 mph4.7 kmh 29.37 in994.6 mb 0.00 in0.0 mm 0.00 in0.0 mm 0.00 in0.0 mm
10:17 PM 44.1°F6.7°C 35.2°F1.8°C 71% 0.9 mph SW1.4 kmh SW 5.0 mph8.0 kmh 29.37 in994.6 mb 0.00 in0.0 mm 0.00 in0.0 mm 0.00 in0.0 mm
10:22 PM 44.1°F6.7°C 35.2°F1.8°C 71% 0.9 mph SW1.4 kmh SW 4.9 mph7.9 kmh 29.37 in994.6 mb 0.00 in0.0 mm 0.00 in0.0 mm 0.00 in0.0 mm
10:27 PM 44.1°F6.7°C 34.9°F1.6°C 70% 0.9 mph SW1.4 kmh SW 4.0 mph6.4 kmh 29.37 in994.6 mb 0.00 in0.0 mm 0.00 in0.0 mm 0.00 in0.0 mm
10:32 PM 44.1°F6.7°C 34.9°F1.6°C 70% 0.9 mph SW1.4 kmh SW 4.0 mph6.4 kmh 29.37 in994.6 mb 0.00 in0.0 mm 0.00 in0.0 mm 0.00 in0.0 mm
10:37 PM 43.7°F6.5°C 34.9°F1.6°C 71% 0.9 mph SW1.4 kmh SW 2.0 mph3.2 kmh 29.38 in994.9 mb 0.00 in0.0 mm 0.00 in0.0 mm 0.00 in0.0 mm
10:42 PM 43.5°F6.4°C 34.7°F1.5°C 71% Calm Calm 2.9 mph4.7 kmh 29.38 in994.9 mb 0.00 in0.0 mm 0.00 in0.0 mm 0.00 in0.0 mm
10:47 PM 43.3°F6.3°C 34.5°F1.4°C 71% 0.9 mph SW1.4 kmh SW 4.0 mph6.4 kmh 29.37 in994.6 mb 0.00 in0.0 mm 0.00 in0.0 mm 0.00 in0.0 mm
10:52 PM 43.3°F6.3°C 34.5°F1.4°C 71% 0.9 mph S1.4 kmh S 2.9 mph4.7 kmh 29.37 in994.6 mb 0.00 in0.0 mm 0.00 in0.0 mm 0.00 in0.0 mm
10:57 PM 43.3°F6.3°C 34.5°F1.4°C 71% 0.9 mph WSW1.4 kmh WSW 4.9 mph7.9 kmh 29.38 in994.9 mb 0.00 in0.0 mm 0.00 in0.0 mm 0.00 in0.0 mm
11:02 PM 43.3°F6.3°C 34.5°F1.4°C 71% 0.9 mph WSW1.4 kmh WSW 4.0 mph6.4 kmh 29.38 in994.9 mb 0.00 in0.0 mm 0.00 in0.0 mm 0.00 in0.0 mm
11:07 PM 43.3°F6.3°C 34.5°F1.4°C 71% 0.9 mph SW1.4 kmh SW 6.0 mph9.7 kmh 29.38 in994.9 mb 0.00 in0.0 mm 0.00 in0.0 mm 0.00 in0.0 mm
11:12 PM 43.0°F6.1°C 34.2°F1.2°C 71% 0.9 mph SSW1.4 kmh SSW 2.0 mph3.2 kmh 29.39 in995.3 mb 0.00 in0.0 mm 0.00 in0.0 mm 0.00 in0.0 mm
11:17 PM 43.0°F6.1°C 34.5°F1.4°C 72% 0.9 mph SW1.4 kmh SW 4.0 mph6.4 kmh 29.39 in995.3 mb 0.00 in0.0 mm 0.00 in0.0 mm 0.00 in0.0 mm
11:22 PM 42.8°F6.0°C 34.3°F1.3°C 72% 0.9 mph SSW1.4 kmh SSW 2.9 mph4.7 kmh 29.38 in994.9 mb 0.00 in0.0 mm 0.00 in0.0 mm 0.00 in0.0 mm
11:27 PM 42.4°F5.8°C 34.0°F1.1°C 72% Calm Calm 2.9 mph4.7 kmh 29.38 in994.9 mb 0.00 in0.0 mm 0.00 in0.0 mm 0.00 in0.0 mm
11:32 PM 42.3°F5.7°C 34.2°F1.2°C 73% Calm Calm 2.0 mph3.2 kmh 29.38 in994.9 mb 0.00 in0.0 mm 0.00 in0.0 mm 0.00 in0.0 mm
11:37 PM 42.1°F5.6°C 34.0°F1.1°C 73% Calm Calm 2.0 mph3.2 kmh 29.38 in994.9 mb 0.00 in0.0 mm 0.00 in0.0 mm 0.00 in0.0 mm
11:42 PM 41.7°F5.4°C 34.0°F1.1°C 74% Calm Calm 2.0 mph3.2 kmh 29.39 in995.3 mb 0.00 in0.0 mm 0.00 in0.0 mm 0.00 in0.0 mm
11:47 PM 41.4°F5.2°C 33.6°F0.9°C 74% 0.9 mph SSW1.4 kmh SSW 2.0 mph3.2 kmh 29.39 in995.3 mb 0.00 in0.0 mm 0.00 in0.0 mm 0.00 in0.0 mm
11:52 PM 41.2°F5.1°C 33.8°F1.0°C 75% 0.9 mph SW1.4 kmh SW 2.0 mph3.2 kmh 29.38 in994.9 mb 0.00 in0.0 mm 0.00 in0.0 mm 0.00 in0.0 mm
11:57 PM 41.2°F5.1°C 33.8°F1.0°C 75% 0.9 mph SW1.4 kmh SW 3.0 mph4.8 kmh 29.38 in994.9 mb 0.00 in0.0 mm 0.00 in0.0 mm 0.00 in0.0 mm